sensor_id;sensor_type;location;lat;lon;timestamp;P1;durP1;ratioP1;P2;durP2;ratioP2
15806;SDS011;8005;51.368;6.140;2022-07-23T00:01:29;7.27;;;3.80;;
15806;SDS011;8005;51.368;6.140;2022-07-23T00:03:01;7.35;;;3.85;;
15806;SDS011;8005;51.368;6.140;2022-07-23T00:04:40;6.78;;;3.78;;
15806;SDS011;8005;51.368;6.140;2022-07-23T00:06:11;7.10;;;3.85;;
15806;SDS011;8005;51.368;6.140;2022-07-23T00:07:43;8.57;;;4.45;;
15806;SDS011;8005;51.368;6.140;2022-07-23T00:09:15;8.13;;;3.73;;
15806;SDS011;8005;51.368;6.140;2022-07-23T00:10:47;6.55;;;3.83;;
15806;SDS011;8005;51.368;6.140;2022-07-23T00:12:21;7.78;;;3.88;;
15806;SDS011;8005;51.368;6.140;2022-07-23T00:13:54;6.22;;;4.22;;
15806;SDS011;8005;51.368;6.140;2022-07-23T00:15:27;9.05;;;4.00;;
15806;SDS011;8005;51.368;6.140;2022-07-23T00:16:59;8.93;;;4.28;;
15806;SDS011;8005;51.368;6.140;2022-07-23T00:18:31;9.18;;;4.65;;
15806;SDS011;8005;51.368;6.140;2022-07-23T00:20:03;6.38;;;4.50;;
15806;SDS011;8005;51.368;6.140;2022-07-23T00:21:35;6.80;;;4.72;;
15806;SDS011;8005;51.368;6.140;2022-07-23T00:23:07;8.37;;;5.47;;
15806;SDS011;8005;51.368;6.140;2022-07-23T00:24:39;9.23;;;5.63;;
15806;SDS011;8005;51.368;6.140;2022-07-23T00:26:11;6.80;;;4.78;;
15806;SDS011;8005;51.368;6.140;2022-07-23T00:27:43;8.43;;;4.13;;
15806;SDS011;8005;51.368;6.140;2022-07-23T00:29:15;8.13;;;4.10;;
15806;SDS011;8005;51.368;6.140;2022-07-23T00:30:47;10.27;;;4.35;;
15806;SDS011;8005;51.368;6.140;2022-07-23T00:32:19;10.38;;;5.22;;
15806;SDS011;8005;51.368;6.140;2022-07-23T00:34:11;6.75;;;4.35;;
15806;SDS011;8005;51.368;6.140;2022-07-23T00:35:43;10.38;;;4.93;;
15806;SDS011;8005;51.368;6.140;2022-07-23T00:37:15;6.28;;;4.57;;
15806;SDS011;8005;51.368;6.140;2022-07-23T00:38:47;9.83;;;4.80;;
15806;SDS011;8005;51.368;6.140;2022-07-23T00:40:19;7.93;;;4.43;;
15806;SDS011;8005;51.368;6.140;2022-07-23T00:41:51;8.02;;;5.10;;
15806;SDS011;8005;51.368;6.140;2022-07-23T00:43:24;8.68;;;4.82;;
15806;SDS011;8005;51.368;6.140;2022-07-23T00:44:56;10.18;;;5.40;;
15806;SDS011;8005;51.368;6.140;2022-07-23T00:46:28;7.05;;;5.00;;
15806;SDS011;8005;51.368;6.140;2022-07-23T00:48:01;8.30;;;5.15;;
15806;SDS011;8005;51.368;6.140;2022-07-23T00:49:32;6.95;;;4.18;;
15806;SDS011;8005;51.368;6.140;2022-07-23T00:51:04;7.15;;;4.38;;
15806;SDS011;8005;51.368;6.140;2022-07-23T00:52:37;6.07;;;4.55;;
15806;SDS011;8005;51.368;6.140;2022-07-23T00:54:10;7.88;;;4.30;;
15806;SDS011;8005;51.368;6.140;2022-07-23T00:55:42;6.03;;;4.20;;
15806;SDS011;8005;51.368;6.140;2022-07-23T00:57:14;9.70;;;4.68;;
15806;SDS011;8005;51.368;6.140;2022-07-23T00:58:45;7.95;;;4.57;;
15806;SDS011;8005;51.368;6.140;2022-07-23T01:00:18;8.40;;;4.43;;
15806;SDS011;8005;51.368;6.140;2022-07-23T01:01:52;8.40;;;4.53;;
15806;SDS011;8005;51.368;6.140;2022-07-23T01:03:25;5.82;;;4.22;;
15806;SDS011;8005;51.368;6.140;2022-07-23T01:04:57;7.53;;;4.57;;
15806;SDS011;8005;51.368;6.140;2022-07-23T01:06:30;6.90;;;4.53;;
15806;SDS011;8005;51.368;6.140;2022-07-23T01:08:05;8.38;;;5.00;;
15806;SDS011;8005;51.368;6.140;2022-07-23T01:09:37;10.32;;;5.30;;
15806;SDS011;8005;51.368;6.140;2022-07-23T01:11:09;7.75;;;5.15;;
15806;SDS011;8005;51.368;6.140;2022-07-23T01:12:41;9.35;;;4.65;;
15806;SDS011;8005;51.368;6.140;2022-07-23T01:14:14;9.43;;;5.20;;
15806;SDS011;8005;51.368;6.140;2022-07-23T01:15:47;8.65;;;4.65;;
15806;SDS011;8005;51.368;6.140;2022-07-23T01:17:19;9.67;;;4.83;;
15806;SDS011;8005;51.368;6.140;2022-07-23T01:18:51;9.37;;;5.47;;
15806;SDS011;8005;51.368;6.140;2022-07-23T01:20:26;12.38;;;6.05;;
15806;SDS011;8005;51.368;6.140;2022-07-23T01:21:58;9.27;;;5.30;;
15806;SDS011;8005;51.368;6.140;2022-07-23T01:23:33;8.35;;;5.25;;
15806;SDS011;8005;51.368;6.140;2022-07-23T01:25:05;7.38;;;5.47;;
15806;SDS011;8005;51.368;6.140;2022-07-23T01:26:40;8.80;;;5.70;;
15806;SDS011;8005;51.368;6.140;2022-07-23T01:28:16;11.10;;;5.80;;
15806;SDS011;8005;51.368;6.140;2022-07-23T01:29:48;8.30;;;5.82;;
15806;SDS011;8005;51.368;6.140;2022-07-23T01:31:24;9.50;;;5.90;;
15806;SDS011;8005;51.368;6.140;2022-07-23T01:33:01;9.23;;;6.00;;
15806;SDS011;8005;51.368;6.140;2022-07-23T01:34:33;9.35;;;5.40;;
15806;SDS011;8005;51.368;6.140;2022-07-23T01:36:06;11.30;;;5.45;;
15806;SDS011;8005;51.368;6.140;2022-07-23T01:37:38;8.95;;;4.72;;
15806;SDS011;8005;51.368;6.140;2022-07-23T01:40:43;9.25;;;4.97;;
15806;SDS011;8005;51.368;6.140;2022-07-23T01:42:18;9.07;;;5.05;;
15806;SDS011;8005;51.368;6.140;2022-07-23T01:43:51;10.70;;;5.32;;
15806;SDS011;8005;51.368;6.140;2022-07-23T01:45:24;7.95;;;5.07;;
15806;SDS011;8005;51.368;6.140;2022-07-23T01:46:56;7.68;;;5.22;;
15806;SDS011;8005;51.368;6.140;2022-07-23T01:48:28;9.23;;;5.40;;
15806;SDS011;8005;51.368;6.140;2022-07-23T01:50:31;7.13;;;4.72;;
15806;SDS011;8005;51.368;6.140;2022-07-23T01:52:32;8.25;;;4.95;;
15806;SDS011;8005;51.368;6.140;2022-07-23T01:54:04;8.25;;;5.47;;
15806;SDS011;8005;51.368;6.140;2022-07-23T01:55:36;9.20;;;5.57;;
15806;SDS011;8005;51.368;6.140;2022-07-23T01:57:08;10.45;;;6.00;;
15806;SDS011;8005;51.368;6.140;2022-07-23T02:00:13;8.65;;;5.35;;
15806;SDS011;8005;51.368;6.140;2022-07-23T02:01:50;11.65;;;5.95;;
15806;SDS011;8005;51.368;6.140;2022-07-23T02:03:22;9.57;;;6.07;;
15806;SDS011;8005;51.368;6.140;2022-07-23T02:04:57;9.32;;;6.22;;
15806;SDS011;8005;51.368;6.140;2022-07-23T02:06:30;7.68;;;5.75;;
15806;SDS011;8005;51.368;6.140;2022-07-23T02:08:02;7.72;;;5.30;;
15806;SDS011;8005;51.368;6.140;2022-07-23T02:09:38;9.05;;;6.28;;
15806;SDS011;8005;51.368;6.140;2022-07-23T02:11:10;10.00;;;5.97;;
15806;SDS011;8005;51.368;6.140;2022-07-23T02:12:42;7.83;;;5.73;;
15806;SDS011;8005;51.368;6.140;2022-07-23T02:14:14;8.88;;;5.75;;
15806;SDS011;8005;51.368;6.140;2022-07-23T02:15:47;11.35;;;6.13;;
15806;SDS011;8005;51.368;6.140;2022-07-23T02:17:19;11.05;;;6.53;;
15806;SDS011;8005;51.368;6.140;2022-07-23T02:18:50;10.82;;;5.57;;
15806;SDS011;8005;51.368;6.140;2022-07-23T02:20:22;9.68;;;6.38;;
15806;SDS011;8005;51.368;6.140;2022-07-23T02:21:56;7.60;;;5.43;;
15806;SDS011;8005;51.368;6.140;2022-07-23T02:23:28;11.88;;;5.68;;
15806;SDS011;8005;51.368;6.140;2022-07-23T02:25:00;7.30;;;5.38;;
15806;SDS011;8005;51.368;6.140;2022-07-23T02:26:32;10.40;;;6.18;;
15806;SDS011;8005;51.368;6.140;2022-07-23T02:28:08;9.45;;;5.43;;
15806;SDS011;8005;51.368;6.140;2022-07-23T02:29:40;9.40;;;5.30;;
15806;SDS011;8005;51.368;6.140;2022-07-23T02:31:12;7.97;;;5.38;;
15806;SDS011;8005;51.368;6.140;2022-07-23T02:32:44;7.13;;;5.55;;
15806;SDS011;8005;51.368;6.140;2022-07-23T02:34:16;9.70;;;5.60;;
15806;SDS011;8005;51.368;6.140;2022-07-23T02:35:48;7.57;;;4.72;;
15806;SDS011;8005;51.368;6.140;2022-07-23T02:37:24;10.68;;;5.70;;
15806;SDS011;8005;51.368;6.140;2022-07-23T02:38:56;7.47;;;5.60;;
15806;SDS011;8005;51.368;6.140;2022-07-23T02:40:30;8.95;;;6.07;;
15806;SDS011;8005;51.368;6.140;2022-07-23T02:42:02;12.95;;;6.15;;
15806;SDS011;8005;51.368;6.140;2022-07-23T02:43:36;8.90;;;6.00;;
15806;SDS011;8005;51.368;6.140;2022-07-23T02:45:08;9.65;;;5.70;;
15806;SDS011;8005;51.368;6.140;2022-07-23T02:46:40;8.07;;;5.40;;
15806;SDS011;8005;51.368;6.140;2022-07-23T02:48:12;7.72;;;5.78;;
15806;SDS011;8005;51.368;6.140;2022-07-23T02:49:48;10.38;;;6.03;;
15806;SDS011;8005;51.368;6.140;2022-07-23T02:51:19;7.03;;;5.20;;
15806;SDS011;8005;51.368;6.140;2022-07-23T02:52:57;10.40;;;6.70;;
15806;SDS011;8005;51.368;6.140;2022-07-23T02:54:29;11.05;;;6.05;;
15806;SDS011;8005;51.368;6.140;2022-07-23T02:56:01;10.45;;;6.25;;
15806;SDS011;8005;51.368;6.140;2022-07-23T02:57:33;13.32;;;6.63;;
15806;SDS011;8005;51.368;6.140;2022-07-23T02:59:05;9.90;;;6.10;;
15806;SDS011;8005;51.368;6.140;2022-07-23T03:00:37;10.32;;;5.97;;
15806;SDS011;8005;51.368;6.140;2022-07-23T03:02:09;8.55;;;6.43;;
15806;SDS011;8005;51.368;6.140;2022-07-23T03:03:42;11.52;;;5.70;;
15806;SDS011;8005;51.368;6.140;2022-07-23T03:05:14;9.90;;;5.93;;
15806;SDS011;8005;51.368;6.140;2022-07-23T03:06:46;9.75;;;6.63;;
15806;SDS011;8005;51.368;6.140;2022-07-23T03:08:18;10.95;;;5.72;;
15806;SDS011;8005;51.368;6.140;2022-07-23T03:09:54;10.68;;;6.43;;
15806;SDS011;8005;51.368;6.140;2022-07-23T03:11:27;9.82;;;6.82;;
15806;SDS011;8005;51.368;6.140;2022-07-23T03:12:58;8.32;;;5.85;;
15806;SDS011;8005;51.368;6.140;2022-07-23T03:14:30;11.60;;;7.00;;
15806;SDS011;8005;51.368;6.140;2022-07-23T03:16:02;8.73;;;5.70;;
15806;SDS011;8005;51.368;6.140;2022-07-23T03:17:35;8.60;;;6.40;;
15806;SDS011;8005;51.368;6.140;2022-07-23T03:19:07;10.23;;;5.90;;
15806;SDS011;8005;51.368;6.140;2022-07-23T03:20:39;9.70;;;6.25;;
15806;SDS011;8005;51.368;6.140;2022-07-23T03:22:13;9.25;;;6.38;;
15806;SDS011;8005;51.368;6.140;2022-07-23T03:23:44;8.23;;;6.47;;
15806;SDS011;8005;51.368;6.140;2022-07-23T03:25:19;9.75;;;7.10;;
15806;SDS011;8005;51.368;6.140;2022-07-23T03:26:51;9.43;;;6.95;;
15806;SDS011;8005;51.368;6.140;2022-07-23T03:28:26;11.00;;;6.47;;
15806;SDS011;8005;51.368;6.140;2022-07-23T03:29:58;9.05;;;6.20;;
15806;SDS011;8005;51.368;6.140;2022-07-23T03:31:31;9.40;;;6.28;;
15806;SDS011;8005;51.368;6.140;2022-07-23T03:33:03;10.52;;;6.68;;
15806;SDS011;8005;51.368;6.140;2022-07-23T03:34:35;11.80;;;6.95;;
15806;SDS011;8005;51.368;6.140;2022-07-23T03:36:08;8.82;;;6.47;;
15806;SDS011;8005;51.368;6.140;2022-07-23T03:37:44;8.63;;;6.55;;
15806;SDS011;8005;51.368;6.140;2022-07-23T03:39:17;10.00;;;6.43;;
15806;SDS011;8005;51.368;6.140;2022-07-23T03:40:49;8.15;;;6.32;;
15806;SDS011;8005;51.368;6.140;2022-07-23T03:42:21;10.70;;;6.30;;
15806;SDS011;8005;51.368;6.140;2022-07-23T03:43:56;9.70;;;6.55;;
15806;SDS011;8005;51.368;6.140;2022-07-23T03:45:31;9.07;;;7.45;;
15806;SDS011;8005;51.368;6.140;2022-07-23T03:47:03;10.35;;;7.15;;
15806;SDS011;8005;51.368;6.140;2022-07-23T03:48:38;14.23;;;8.63;;
15806;SDS011;8005;51.368;6.140;2022-07-23T03:50:10;10.07;;;7.72;;
15806;SDS011;8005;51.368;6.140;2022-07-23T03:51:42;10.60;;;7.88;;
15806;SDS011;8005;51.368;6.140;2022-07-23T03:53:14;12.75;;;8.13;;
15806;SDS011;8005;51.368;6.140;2022-07-23T03:54:46;10.23;;;7.38;;
15806;SDS011;8005;51.368;6.140;2022-07-23T03:56:18;12.43;;;7.57;;
15806;SDS011;8005;51.368;6.140;2022-07-23T03:57:50;8.52;;;7.20;;
15806;SDS011;8005;51.368;6.140;2022-07-23T03:59:22;10.17;;;7.67;;
15806;SDS011;8005;51.368;6.140;2022-07-23T04:00:54;11.60;;;7.47;;
15806;SDS011;8005;51.368;6.140;2022-07-23T04:02:26;12.43;;;7.55;;
15806;SDS011;8005;51.368;6.140;2022-07-23T04:03:58;12.83;;;7.93;;
15806;SDS011;8005;51.368;6.140;2022-07-23T04:05:35;10.65;;;7.95;;
15806;SDS011;8005;51.368;6.140;2022-07-23T04:07:12;9.95;;;7.53;;
15806;SDS011;8005;51.368;6.140;2022-07-23T04:08:45;11.23;;;7.45;;
15806;SDS011;8005;51.368;6.140;2022-07-23T04:10:19;13.07;;;7.67;;
15806;SDS011;8005;51.368;6.140;2022-07-23T04:11:51;8.38;;;7.18;;
15806;SDS011;8005;51.368;6.140;2022-07-23T04:13:25;9.70;;;7.75;;
15806;SDS011;8005;51.368;6.140;2022-07-23T04:14:57;12.95;;;7.65;;
15806;SDS011;8005;51.368;6.140;2022-07-23T04:16:29;12.40;;;8.02;;
15806;SDS011;8005;51.368;6.140;2022-07-23T04:18:03;13.13;;;7.72;;
15806;SDS011;8005;51.368;6.140;2022-07-23T04:19:55;9.85;;;7.25;;
15806;SDS011;8005;51.368;6.140;2022-07-23T04:21:28;10.40;;;7.78;;
15806;SDS011;8005;51.368;6.140;2022-07-23T04:23:00;12.43;;;7.33;;
15806;SDS011;8005;51.368;6.140;2022-07-23T04:24:36;10.25;;;7.55;;
15806;SDS011;8005;51.368;6.140;2022-07-23T04:26:08;8.95;;;6.00;;
15806;SDS011;8005;51.368;6.140;2022-07-23T04:27:49;12.40;;;6.75;;
15806;SDS011;8005;51.368;6.140;2022-07-23T04:29:21;9.25;;;7.35;;
15806;SDS011;8005;51.368;6.140;2022-07-23T04:30:56;8.07;;;6.68;;
15806;SDS011;8005;51.368;6.140;2022-07-23T04:32:29;11.90;;;7.32;;
15806;SDS011;8005;51.368;6.140;2022-07-23T04:34:01;9.63;;;6.40;;
15806;SDS011;8005;51.368;6.140;2022-07-23T04:35:34;11.32;;;6.60;;
15806;SDS011;8005;51.368;6.140;2022-07-23T04:37:15;8.45;;;6.97;;
15806;SDS011;8005;51.368;6.140;2022-07-23T04:38:47;10.23;;;6.50;;
15806;SDS011;8005;51.368;6.140;2022-07-23T04:40:24;10.63;;;6.47;;
15806;SDS011;8005;51.368;6.140;2022-07-23T04:41:56;10.88;;;7.15;;
15806;SDS011;8005;51.368;6.140;2022-07-23T04:43:28;10.80;;;7.10;;
15806;SDS011;8005;51.368;6.140;2022-07-23T04:45:00;12.25;;;7.03;;
15806;SDS011;8005;51.368;6.140;2022-07-23T04:46:32;12.60;;;6.47;;
15806;SDS011;8005;51.368;6.140;2022-07-23T04:48:05;7.63;;;6.53;;
15806;SDS011;8005;51.368;6.140;2022-07-23T04:49:37;12.85;;;7.30;;
15806;SDS011;8005;51.368;6.140;2022-07-23T04:51:09;10.90;;;7.07;;
15806;SDS011;8005;51.368;6.140;2022-07-23T04:52:41;9.97;;;7.73;;
15806;SDS011;8005;51.368;6.140;2022-07-23T04:54:13;11.43;;;6.78;;
15806;SDS011;8005;51.368;6.140;2022-07-23T04:55:45;10.83;;;6.80;;
15806;SDS011;8005;51.368;6.140;2022-07-23T04:57:17;10.02;;;7.50;;
15806;SDS011;8005;51.368;6.140;2022-07-23T04:58:48;10.20;;;6.40;;
15806;SDS011;8005;51.368;6.140;2022-07-23T05:00:21;8.48;;;6.68;;
15806;SDS011;8005;51.368;6.140;2022-07-23T05:01:53;12.02;;;7.90;;
15806;SDS011;8005;51.368;6.140;2022-07-23T05:03:25;9.25;;;6.53;;
15806;SDS011;8005;51.368;6.140;2022-07-23T05:04:57;10.25;;;7.28;;
15806;SDS011;8005;51.368;6.140;2022-07-23T05:06:31;9.07;;;6.88;;
15806;SDS011;8005;51.368;6.140;2022-07-23T05:08:03;10.82;;;7.18;;
15806;SDS011;8005;51.368;6.140;2022-07-23T05:09:35;11.40;;;7.57;;
15806;SDS011;8005;51.368;6.140;2022-07-23T05:11:08;9.23;;;7.15;;
15806;SDS011;8005;51.368;6.140;2022-07-23T05:12:40;11.73;;;7.95;;
15806;SDS011;8005;51.368;6.140;2022-07-23T05:14:12;10.63;;;7.30;;
15806;SDS011;8005;51.368;6.140;2022-07-23T05:15:44;12.70;;;7.73;;
15806;SDS011;8005;51.368;6.140;2022-07-23T05:17:17;9.10;;;7.72;;
15806;SDS011;8005;51.368;6.140;2022-07-23T05:18:49;10.05;;;7.40;;
15806;SDS011;8005;51.368;6.140;2022-07-23T05:20:21;13.77;;;8.97;;
15806;SDS011;8005;51.368;6.140;2022-07-23T05:21:53;10.43;;;8.30;;
15806;SDS011;8005;51.368;6.140;2022-07-23T05:23:25;8.45;;;6.85;;
15806;SDS011;8005;51.368;6.140;2022-07-23T05:24:57;10.93;;;8.15;;
15806;SDS011;8005;51.368;6.140;2022-07-23T05:26:29;11.80;;;7.43;;
15806;SDS011;8005;51.368;6.140;2022-07-23T05:28:01;12.02;;;7.43;;
15806;SDS011;8005;51.368;6.140;2022-07-23T05:29:34;12.40;;;7.63;;
15806;SDS011;8005;51.368;6.140;2022-07-23T05:31:06;11.60;;;7.80;;
15806;SDS011;8005;51.368;6.140;2022-07-23T05:32:38;9.82;;;7.32;;
15806;SDS011;8005;51.368;6.140;2022-07-23T05:34:16;9.77;;;7.65;;
15806;SDS011;8005;51.368;6.140;2022-07-23T05:35:50;9.75;;;6.93;;
15806;SDS011;8005;51.368;6.140;2022-07-23T05:37:33;8.48;;;7.30;;
15806;SDS011;8005;51.368;6.140;2022-07-23T05:39:05;12.40;;;8.23;;
15806;SDS011;8005;51.368;6.140;2022-07-23T05:40:40;12.60;;;7.20;;
15806;SDS011;8005;51.368;6.140;2022-07-23T05:42:12;11.32;;;7.78;;
15806;SDS011;8005;51.368;6.140;2022-07-23T05:43:44;10.45;;;8.07;;
15806;SDS011;8005;51.368;6.140;2022-07-23T05:45:18;11.38;;;7.70;;
15806;SDS011;8005;51.368;6.140;2022-07-23T05:46:50;11.75;;;7.60;;
15806;SDS011;8005;51.368;6.140;2022-07-23T05:48:25;9.00;;;7.30;;
15806;SDS011;8005;51.368;6.140;2022-07-23T05:50:11;13.10;;;7.88;;
15806;SDS011;8005;51.368;6.140;2022-07-23T05:51:50;9.05;;;6.70;;
15806;SDS011;8005;51.368;6.140;2022-07-23T05:53:30;14.43;;;8.18;;
15806;SDS011;8005;51.368;6.140;2022-07-23T05:55:38;13.10;;;9.52;;
15806;SDS011;8005;51.368;6.140;2022-07-23T05:57:10;12.10;;;8.88;;
15806;SDS011;8005;51.368;6.140;2022-07-23T05:58:42;11.37;;;7.73;;
15806;SDS011;8005;51.368;6.140;2022-07-23T06:01:49;9.45;;;7.55;;
15806;SDS011;8005;51.368;6.140;2022-07-23T06:03:21;9.63;;;7.80;;
15806;SDS011;8005;51.368;6.140;2022-07-23T06:04:53;12.52;;;7.63;;
15806;SDS011;8005;51.368;6.140;2022-07-23T06:06:34;14.93;;;7.05;;
15806;SDS011;8005;51.368;6.140;2022-07-23T06:08:07;12.52;;;8.30;;
15806;SDS011;8005;51.368;6.140;2022-07-23T06:09:39;8.35;;;6.90;;
15806;SDS011;8005;51.368;6.140;2022-07-23T06:11:11;9.27;;;7.10;;
15806;SDS011;8005;51.368;6.140;2022-07-23T06:12:43;12.23;;;7.33;;
15806;SDS011;8005;51.368;6.140;2022-07-23T06:14:15;10.80;;;7.77;;
15806;SDS011;8005;51.368;6.140;2022-07-23T06:16:05;8.77;;;6.63;;
15806;SDS011;8005;51.368;6.140;2022-07-23T06:17:37;12.18;;;8.82;;
15806;SDS011;8005;51.368;6.140;2022-07-23T06:19:12;9.93;;;7.15;;
15806;SDS011;8005;51.368;6.140;2022-07-23T06:20:44;12.35;;;7.60;;
15806;SDS011;8005;51.368;6.140;2022-07-23T06:22:21;12.10;;;6.72;;
15806;SDS011;8005;51.368;6.140;2022-07-23T06:25:25;9.65;;;6.75;;
15806;SDS011;8005;51.368;6.140;2022-07-23T06:26:57;10.52;;;7.30;;
15806;SDS011;8005;51.368;6.140;2022-07-23T06:28:29;10.15;;;7.03;;
15806;SDS011;8005;51.368;6.140;2022-07-23T06:30:01;9.10;;;6.63;;
15806;SDS011;8005;51.368;6.140;2022-07-23T06:31:33;9.75;;;6.82;;
15806;SDS011;8005;51.368;6.140;2022-07-23T06:33:05;10.10;;;6.43;;
15806;SDS011;8005;51.368;6.140;2022-07-23T06:34:37;9.52;;;6.78;;
15806;SDS011;8005;51.368;6.140;2022-07-23T06:36:09;7.38;;;6.10;;
15806;SDS011;8005;51.368;6.140;2022-07-23T06:37:41;9.87;;;6.37;;
15806;SDS011;8005;51.368;6.140;2022-07-23T06:39:13;9.15;;;5.75;;
15806;SDS011;8005;51.368;6.140;2022-07-23T06:40:50;9.02;;;5.75;;
15806;SDS011;8005;51.368;6.140;2022-07-23T06:42:22;10.02;;;6.32;;
15806;SDS011;8005;51.368;6.140;2022-07-23T06:44:01;7.90;;;5.75;;
15806;SDS011;8005;51.368;6.140;2022-07-23T06:45:35;12.38;;;5.90;;
15806;SDS011;8005;51.368;6.140;2022-07-23T06:47:07;8.93;;;5.50;;
15806;SDS011;8005;51.368;6.140;2022-07-23T06:50:11;9.45;;;5.78;;
15806;SDS011;8005;51.368;6.140;2022-07-23T06:51:46;9.02;;;5.80;;
15806;SDS011;8005;51.368;6.140;2022-07-23T06:53:18;7.88;;;5.38;;
15806;SDS011;8005;51.368;6.140;2022-07-23T06:54:50;8.63;;;5.43;;
15806;SDS011;8005;51.368;6.140;2022-07-23T06:56:21;5.82;;;4.70;;
15806;SDS011;8005;51.368;6.140;2022-07-23T06:57:53;8.45;;;4.78;;
15806;SDS011;8005;51.368;6.140;2022-07-23T06:59:26;9.57;;;5.28;;
15806;SDS011;8005;51.368;6.140;2022-07-23T07:00:57;8.03;;;5.33;;
15806;SDS011;8005;51.368;6.140;2022-07-23T07:02:29;9.48;;;5.13;;
15806;SDS011;8005;51.368;6.140;2022-07-23T07:04:01;8.07;;;4.88;;
15806;SDS011;8005;51.368;6.140;2022-07-23T07:05:33;8.38;;;4.63;;
15806;SDS011;8005;51.368;6.140;2022-07-23T07:07:05;7.50;;;4.43;;
15806;SDS011;8005;51.368;6.140;2022-07-23T07:08:37;7.83;;;4.57;;
15806;SDS011;8005;51.368;6.140;2022-07-23T07:10:09;9.13;;;4.50;;
15806;SDS011;8005;51.368;6.140;2022-07-23T07:11:46;8.18;;;4.45;;
15806;SDS011;8005;51.368;6.140;2022-07-23T07:13:18;7.87;;;4.30;;
15806;SDS011;8005;51.368;6.140;2022-07-23T07:14:50;7.37;;;4.17;;
15806;SDS011;8005;51.368;6.140;2022-07-23T07:16:22;5.88;;;4.03;;
15806;SDS011;8005;51.368;6.140;2022-07-23T07:17:54;6.63;;;4.10;;
15806;SDS011;8005;51.368;6.140;2022-07-23T07:19:26;5.82;;;4.07;;
15806;SDS011;8005;51.368;6.140;2022-07-23T07:20:57;8.43;;;4.97;;
15806;SDS011;8005;51.368;6.140;2022-07-23T07:22:29;6.53;;;4.30;;
15806;SDS011;8005;51.368;6.140;2022-07-23T07:24:01;5.20;;;3.63;;
15806;SDS011;8005;51.368;6.140;2022-07-23T07:25:33;5.95;;;3.50;;
15806;SDS011;8005;51.368;6.140;2022-07-23T07:27:05;6.85;;;4.05;;
15806;SDS011;8005;51.368;6.140;2022-07-23T07:28:37;6.18;;;3.70;;
15806;SDS011;8005;51.368;6.140;2022-07-23T07:30:10;5.72;;;4.15;;
15806;SDS011;8005;51.368;6.140;2022-07-23T07:31:42;7.60;;;2.95;;
15806;SDS011;8005;51.368;6.140;2022-07-23T07:33:14;7.28;;;3.53;;
15806;SDS011;8005;51.368;6.140;2022-07-23T07:34:46;8.63;;;3.63;;
15806;SDS011;8005;51.368;6.140;2022-07-23T07:36:18;7.28;;;3.50;;
15806;SDS011;8005;51.368;6.140;2022-07-23T07:37:50;5.70;;;3.60;;
15806;SDS011;8005;51.368;6.140;2022-07-23T07:39:22;7.00;;;2.95;;
15806;SDS011;8005;51.368;6.140;2022-07-23T07:40:54;7.37;;;3.23;;
15806;SDS011;8005;51.368;6.140;2022-07-23T07:42:26;6.93;;;3.38;;
15806;SDS011;8005;51.368;6.140;2022-07-23T07:43:58;8.85;;;3.40;;
15806;SDS011;8005;51.368;6.140;2022-07-23T07:45:30;9.07;;;3.67;;
15806;SDS011;8005;51.368;6.140;2022-07-23T07:47:02;6.47;;;3.70;;
15806;SDS011;8005;51.368;6.140;2022-07-23T07:48:34;5.18;;;3.70;;
15806;SDS011;8005;51.368;6.140;2022-07-23T07:50:06;4.88;;;3.20;;
15806;SDS011;8005;51.368;6.140;2022-07-23T07:51:40;7.85;;;4.00;;
15806;SDS011;8005;51.368;6.140;2022-07-23T07:53:12;7.15;;;3.45;;
15806;SDS011;8005;51.368;6.140;2022-07-23T07:54:44;6.85;;;3.47;;
15806;SDS011;8005;51.368;6.140;2022-07-23T07:56:16;4.25;;;3.03;;
15806;SDS011;8005;51.368;6.140;2022-07-23T07:57:48;3.83;;;2.90;;
15806;SDS011;8005;51.368;6.140;2022-07-23T07:59:20;6.85;;;3.20;;
15806;SDS011;8005;51.368;6.140;2022-07-23T08:00:52;5.60;;;3.38;;
15806;SDS011;8005;51.368;6.140;2022-07-23T08:02:25;4.38;;;3.35;;
15806;SDS011;8005;51.368;6.140;2022-07-23T08:03:57;5.60;;;2.70;;
15806;SDS011;8005;51.368;6.140;2022-07-23T08:05:30;7.70;;;3.30;;
15806;SDS011;8005;51.368;6.140;2022-07-23T08:07:02;5.95;;;3.13;;
15806;SDS011;8005;51.368;6.140;2022-07-23T08:08:33;6.63;;;3.35;;
15806;SDS011;8005;51.368;6.140;2022-07-23T08:10:06;6.65;;;3.30;;
15806;SDS011;8005;51.368;6.140;2022-07-23T08:11:39;4.63;;;2.88;;
15806;SDS011;8005;51.368;6.140;2022-07-23T08:13:12;6.25;;;3.67;;
15806;SDS011;8005;51.368;6.140;2022-07-23T08:14:46;5.10;;;2.72;;
15806;SDS011;8005;51.368;6.140;2022-07-23T08:16:18;6.65;;;3.08;;
15806;SDS011;8005;51.368;6.140;2022-07-23T08:19:22;5.55;;;3.40;;
15806;SDS011;8005;51.368;6.140;2022-07-23T08:20:54;7.78;;;3.55;;
15806;SDS011;8005;51.368;6.140;2022-07-23T08:22:40;5.10;;;3.40;;
15806;SDS011;8005;51.368;6.140;2022-07-23T08:24:14;5.07;;;3.03;;
15806;SDS011;8005;51.368;6.140;2022-07-23T08:25:46;5.88;;;3.17;;
15806;SDS011;8005;51.368;6.140;2022-07-23T08:27:18;5.95;;;2.55;;
15806;SDS011;8005;51.368;6.140;2022-07-23T08:28:50;7.05;;;2.70;;
15806;SDS011;8005;51.368;6.140;2022-07-23T08:30:22;3.70;;;2.58;;
15806;SDS011;8005;51.368;6.140;2022-07-23T08:31:57;5.72;;;3.38;;
15806;SDS011;8005;51.368;6.140;2022-07-23T08:33:29;6.03;;;2.40;;
15806;SDS011;8005;51.368;6.140;2022-07-23T08:35:05;5.32;;;3.03;;
15806;SDS011;8005;51.368;6.140;2022-07-23T08:36:36;6.30;;;2.33;;
15806;SDS011;8005;51.368;6.140;2022-07-23T08:38:09;4.20;;;2.45;;
15806;SDS011;8005;51.368;6.140;2022-07-23T08:41:13;6.75;;;3.25;;
15806;SDS011;8005;51.368;6.140;2022-07-23T08:42:47;6.38;;;2.90;;
15806;SDS011;8005;51.368;6.140;2022-07-23T08:44:20;3.25;;;2.30;;
15806;SDS011;8005;51.368;6.140;2022-07-23T08:45:55;4.63;;;2.53;;
15806;SDS011;8005;51.368;6.140;2022-07-23T08:47:32;4.28;;;1.98;;
15806;SDS011;8005;51.368;6.140;2022-07-23T08:49:04;4.57;;;2.60;;
15806;SDS011;8005;51.368;6.140;2022-07-23T08:50:37;4.57;;;2.70;;
15806;SDS011;8005;51.368;6.140;2022-07-23T08:52:11;4.93;;;2.10;;
15806;SDS011;8005;51.368;6.140;2022-07-23T08:53:43;3.25;;;2.17;;
15806;SDS011;8005;51.368;6.140;2022-07-23T08:55:16;4.55;;;2.67;;
15806;SDS011;8005;51.368;6.140;2022-07-23T08:56:49;3.95;;;2.53;;
15806;SDS011;8005;51.368;6.140;2022-07-23T08:58:21;7.57;;;2.47;;
15806;SDS011;8005;51.368;6.140;2022-07-23T08:59:58;4.32;;;2.45;;
15806;SDS011;8005;51.368;6.140;2022-07-23T09:01:30;3.60;;;2.28;;
15806;SDS011;8005;51.368;6.140;2022-07-23T09:03:02;3.35;;;2.42;;
15806;SDS011;8005;51.368;6.140;2022-07-23T09:04:34;3.95;;;2.20;;
15806;SDS011;8005;51.368;6.140;2022-07-23T09:06:06;4.35;;;2.70;;
15806;SDS011;8005;51.368;6.140;2022-07-23T09:08:02;3.28;;;2.10;;
15806;SDS011;8005;51.368;6.140;2022-07-23T09:09:43;4.65;;;2.40;;
15806;SDS011;8005;51.368;6.140;2022-07-23T09:11:16;3.78;;;2.28;;
15806;SDS011;8005;51.368;6.140;2022-07-23T09:12:51;4.93;;;2.70;;
15806;SDS011;8005;51.368;6.140;2022-07-23T09:16:11;4.50;;;2.55;;
15806;SDS011;8005;51.368;6.140;2022-07-23T09:17:44;4.85;;;2.60;;
15806;SDS011;8005;51.368;6.140;2022-07-23T09:19:16;5.15;;;2.33;;
15806;SDS011;8005;51.368;6.140;2022-07-23T09:21:05;4.85;;;2.70;;
15806;SDS011;8005;51.368;6.140;2022-07-23T09:24:17;4.70;;;3.10;;
15806;SDS011;8005;51.368;6.140;2022-07-23T09:25:51;4.43;;;2.97;;
15806;SDS011;8005;51.368;6.140;2022-07-23T09:27:25;7.20;;;3.05;;
15806;SDS011;8005;51.368;6.140;2022-07-23T09:29:25;4.20;;;2.70;;
15806;SDS011;8005;51.368;6.140;2022-07-23T09:30:57;3.50;;;2.70;;
15806;SDS011;8005;51.368;6.140;2022-07-23T09:32:29;6.88;;;3.13;;
15806;SDS011;8005;51.368;6.140;2022-07-23T09:34:08;7.10;;;3.25;;
15806;SDS011;8005;51.368;6.140;2022-07-23T09:35:54;5.22;;;2.88;;
15806;SDS011;8005;51.368;6.140;2022-07-23T09:37:27;5.63;;;3.35;;
15806;SDS011;8005;51.368;6.140;2022-07-23T09:38:59;4.38;;;2.60;;
15806;SDS011;8005;51.368;6.140;2022-07-23T09:40:31;6.18;;;3.08;;
15806;SDS011;8005;51.368;6.140;2022-07-23T09:42:18;7.18;;;3.38;;
15806;SDS011;8005;51.368;6.140;2022-07-23T09:43:54;9.10;;;3.17;;
15806;SDS011;8005;51.368;6.140;2022-07-23T09:45:27;5.93;;;3.78;;